sensor_id;sensor_type;location;lat;lon;timestamp;pressure;altitude;pressure_sealevel;temperature;humidity
76022;BME280;64718;52.124;6.226;2023-07-08T00:00:09;101796.66;;;18.30;67.86
76022;BME280;64718;52.124;6.226;2023-07-08T00:02:36;101794.09;;;18.28;67.56
76022;BME280;64718;52.124;6.226;2023-07-08T00:05:04;101791.75;;;18.24;67.83
76022;BME280;64718;52.124;6.226;2023-07-08T00:07:31;101789.47;;;18.18;68.60
76022;BME280;64718;52.124;6.226;2023-07-08T00:09:57;101794.25;;;18.11;68.92
76022;BME280;64718;52.124;6.226;2023-07-08T00:12:24;101783.34;;;18.03;69.32
76022;BME280;64718;52.124;6.226;2023-07-08T00:14:52;101775.63;;;18.00;69.67
76022;BME280;64718;52.124;6.226;2023-07-08T00:17:19;101768.94;;;17.94;70.41
76022;BME280;64718;52.124;6.226;2023-07-08T00:19:45;101772.50;;;17.93;70.19
76022;BME280;64718;52.124;6.226;2023-07-08T00:22:14;101767.56;;;17.87;70.22
76022;BME280;64718;52.124;6.226;2023-07-08T00:24:42;101771.41;;;17.82;70.56
76022;BME280;64718;52.124;6.226;2023-07-08T00:27:10;101770.63;;;17.80;71.23
76022;BME280;64718;52.124;6.226;2023-07-08T00:29:38;101766.56;;;17.74;71.33
76022;BME280;64718;52.124;6.226;2023-07-08T00:32:10;101773.53;;;17.75;71.58
76022;BME280;64718;52.124;6.226;2023-07-08T00:34:37;101764.97;;;17.72;71.48
76022;BME280;64718;52.124;6.226;2023-07-08T00:37:04;101756.41;;;17.68;72.05
76022;BME280;64718;52.124;6.226;2023-07-08T00:39:32;101760.97;;;17.64;72.08
76022;BME280;64718;52.124;6.226;2023-07-08T00:42:00;101756.81;;;17.60;72.32
76022;BME280;64718;52.124;6.226;2023-07-08T00:44:27;101761.22;;;17.60;72.32
76022;BME280;64718;52.124;6.226;2023-07-08T00:47:05;101755.38;;;17.55;72.41
76022;BME280;64718;52.124;6.226;2023-07-08T00:49:36;101759.63;;;17.57;72.34
76022;BME280;64718;52.124;6.226;2023-07-08T00:52:23;101762.69;;;17.50;73.16
76022;BME280;64718;52.124;6.226;2023-07-08T00:54:53;101762.97;;;17.45;73.16
76022;BME280;64718;52.124;6.226;2023-07-08T00:57:21;101757.88;;;17.42;73.67
76022;BME280;64718;52.124;6.226;2023-07-08T00:59:52;101751.09;;;17.38;73.89
76022;BME280;64718;52.124;6.226;2023-07-08T01:02:22;101757.19;;;17.38;73.74
76022;BME280;64718;52.124;6.226;2023-07-08T01:04:52;101755.50;;;17.37;73.59
76022;BME280;64718;52.124;6.226;2023-07-08T01:07:22;101752.69;;;17.41;74.21
76022;BME280;64718;52.124;6.226;2023-07-08T01:09:57;101747.69;;;17.36;74.34
76022;BME280;64718;52.124;6.226;2023-07-08T01:12:26;101746.06;;;17.33;74.23
76022;BME280;64718;52.124;6.226;2023-07-08T01:14:54;101740.97;;;17.30;74.38
76022;BME280;64718;52.124;6.226;2023-07-08T01:17:22;101740.13;;;17.30;74.73
76022;BME280;64718;52.124;6.226;2023-07-08T01:19:50;101740.28;;;17.27;74.46
76022;BME280;64718;52.124;6.226;2023-07-08T01:22:22;101737.84;;;17.24;75.28
76022;BME280;64718;52.124;6.226;2023-07-08T01:24:48;101742.34;;;17.22;75.15
76022;BME280;64718;52.124;6.226;2023-07-08T01:27:18;101738.94;;;17.20;75.21
76022;BME280;64718;52.124;6.226;2023-07-08T01:29:46;101747.00;;;17.17;75.77
76022;BME280;64718;52.124;6.226;2023-07-08T01:32:14;101742.59;;;17.17;76.18
76022;BME280;64718;52.124;6.226;2023-07-08T01:34:44;101733.44;;;17.08;76.45
76022;BME280;64718;52.124;6.226;2023-07-08T01:37:28;101721.41;;;17.04;76.59
76022;BME280;64718;52.124;6.226;2023-07-08T01:39:55;101720.38;;;17.07;76.54
76022;BME280;64718;52.124;6.226;2023-07-08T01:42:22;101721.06;;;17.11;76.23
76022;BME280;64718;52.124;6.226;2023-07-08T01:44:49;101715.28;;;17.04;76.86
76022;BME280;64718;52.124;6.226;2023-07-08T01:47:19;101714.69;;;16.99;76.80
76022;BME280;64718;52.124;6.226;2023-07-08T01:49:47;101710.63;;;16.93;77.06
76022;BME280;64718;52.124;6.226;2023-07-08T01:52:15;101711.66;;;16.91;77.70
76022;BME280;64718;52.124;6.226;2023-07-08T01:54:44;101713.78;;;16.84;77.86
76022;BME280;64718;52.124;6.226;2023-07-08T01:57:11;101715.13;;;16.91;78.12
76022;BME280;64718;52.124;6.226;2023-07-08T01:59:37;101708.34;;;16.87;77.81
76022;BME280;64718;52.124;6.226;2023-07-08T02:02:04;101710.63;;;16.78;77.75
76022;BME280;64718;52.124;6.226;2023-07-08T02:04:31;101709.84;;;16.75;78.87
76022;BME280;64718;52.124;6.226;2023-07-08T02:06:58;101707.47;;;16.71;78.66
76022;BME280;64718;52.124;6.226;2023-07-08T02:09:26;101707.22;;;16.75;78.83
76022;BME280;64718;52.124;6.226;2023-07-08T02:11:54;101704.66;;;16.74;78.74
76022;BME280;64718;52.124;6.226;2023-07-08T02:14:21;101689.91;;;16.71;78.76
76022;BME280;64718;52.124;6.226;2023-07-08T02:16:48;101688.91;;;16.74;78.82
76022;BME280;64718;52.124;6.226;2023-07-08T02:19:14;101686.44;;;16.71;78.78
76022;BME280;64718;52.124;6.226;2023-07-08T02:21:41;101685.59;;;16.70;78.77
76022;BME280;64718;52.124;6.226;2023-07-08T02:24:08;101683.97;;;16.68;79.84
76022;BME280;64718;52.124;6.226;2023-07-08T02:26:34;101676.41;;;16.62;79.69
76022;BME280;64718;52.124;6.226;2023-07-08T02:29:03;101681.47;;;16.49;80.16
76022;BME280;64718;52.124;6.226;2023-07-08T02:31:29;101673.69;;;16.48;80.90
76022;BME280;64718;52.124;6.226;2023-07-08T02:33:56;101677.47;;;16.42;80.17
76022;BME280;64718;52.124;6.226;2023-07-08T02:36:22;101683.91;;;16.36;81.10
76022;BME280;64718;52.124;6.226;2023-07-08T02:38:49;101678.75;;;16.35;81.37
76022;BME280;64718;52.124;6.226;2023-07-08T02:41:16;101675.34;;;16.33;81.66
76022;BME280;64718;52.124;6.226;2023-07-08T02:43:43;101674.59;;;16.31;81.96
76022;BME280;64718;52.124;6.226;2023-07-08T02:46:10;101673.91;;;16.27;81.87
76022;BME280;64718;52.124;6.226;2023-07-08T02:48:37;101669.34;;;16.31;81.46
76022;BME280;64718;52.124;6.226;2023-07-08T02:51:05;101675.44;;;16.31;81.13
76022;BME280;64718;52.124;6.226;2023-07-08T02:53:34;101676.78;;;16.23;81.98
76022;BME280;64718;52.124;6.226;2023-07-08T02:56:01;101668.97;;;16.21;81.84
76022;BME280;64718;52.124;6.226;2023-07-08T02:58:28;101670.97;;;16.16;82.57
76022;BME280;64718;52.124;6.226;2023-07-08T03:00:55;101668.81;;;16.07;82.02
76022;BME280;64718;52.124;6.226;2023-07-08T03:03:25;101680.72;;;15.97;83.20
76022;BME280;64718;52.124;6.226;2023-07-08T03:05:55;101675.81;;;15.91;84.64
76022;BME280;64718;52.124;6.226;2023-07-08T03:08:22;101674.41;;;15.84;84.64
76022;BME280;64718;52.124;6.226;2023-07-08T03:10:54;101675.81;;;15.91;84.25
76022;BME280;64718;52.124;6.226;2023-07-08T03:13:21;101671.41;;;15.91;83.47
76022;BME280;64718;52.124;6.226;2023-07-08T03:15:47;101663.84;;;15.85;83.94
76022;BME280;64718;52.124;6.226;2023-07-08T03:18:14;101668.09;;;15.88;85.19
76022;BME280;64718;52.124;6.226;2023-07-08T03:20:42;101658.59;;;15.85;84.76
76022;BME280;64718;52.124;6.226;2023-07-08T03:23:09;101659.44;;;15.86;84.95
76022;BME280;64718;52.124;6.226;2023-07-08T03:25:36;101660.28;;;15.86;85.33
76022;BME280;64718;52.124;6.226;2023-07-08T03:28:03;101660.22;;;15.88;84.69
76022;BME280;64718;52.124;6.226;2023-07-08T03:30:31;101661.16;;;15.87;84.96
76022;BME280;64718;52.124;6.226;2023-07-08T03:32:58;101665.31;;;15.91;84.63
76022;BME280;64718;52.124;6.226;2023-07-08T03:35:24;101660.22;;;15.88;85.17
76022;BME280;64718;52.124;6.226;2023-07-08T03:37:52;101658.00;;;15.80;84.77
76022;BME280;64718;52.124;6.226;2023-07-08T03:40:19;101660.44;;;15.83;84.52
76022;BME280;64718;52.124;6.226;2023-07-08T03:42:46;101667.00;;;15.92;85.29
76022;BME280;64718;52.124;6.226;2023-07-08T03:45:12;101668.78;;;15.91;84.81
76022;BME280;64718;52.124;6.226;2023-07-08T03:47:39;101674.19;;;15.88;85.06
76022;BME280;64718;52.124;6.226;2023-07-08T03:50:08;101669.88;;;15.87;85.06
76022;BME280;64718;52.124;6.226;2023-07-08T03:52:42;101670.72;;;15.88;84.69
76022;BME280;64718;52.124;6.226;2023-07-08T03:55:10;101666.38;;;15.87;86.00
76022;BME280;64718;52.124;6.226;2023-07-08T03:57:37;101678.91;;;15.81;87.76
76022;BME280;64718;52.124;6.226;2023-07-08T04:00:04;101681.59;;;15.80;87.46
76022;BME280;64718;52.124;6.226;2023-07-08T04:02:34;101684.22;;;15.63;88.17
76022;BME280;64718;52.124;6.226;2023-07-08T04:05:01;101682.84;;;15.73;86.86
76022;BME280;64718;52.124;6.226;2023-07-08T04:07:28;101684.00;;;15.85;86.63
76022;BME280;64718;52.124;6.226;2023-07-08T04:09:55;101686.22;;;15.92;86.19
76022;BME280;64718;52.124;6.226;2023-07-08T04:12:23;101682.25;;;16.01;85.16
76022;BME280;64718;52.124;6.226;2023-07-08T04:14:50;101685.34;;;16.09;84.17
76022;BME280;64718;52.124;6.226;2023-07-08T04:17:17;101692.69;;;16.20;84.29
76022;BME280;64718;52.124;6.226;2023-07-08T04:19:45;101692.59;;;16.21;84.19
76022;BME280;64718;52.124;6.226;2023-07-08T04:22:11;101700.31;;;16.24;85.78
76022;BME280;64718;52.124;6.226;2023-07-08T04:24:38;101696.94;;;16.22;86.03
76022;BME280;64718;52.124;6.226;2023-07-08T04:27:05;101693.72;;;16.33;85.17
76022;BME280;64718;52.124;6.226;2023-07-08T04:29:33;101694.78;;;16.46;84.04
76022;BME280;64718;52.124;6.226;2023-07-08T04:32:00;101689.44;;;16.63;84.09
76022;BME280;64718;52.124;6.226;2023-07-08T04:34:26;101690.19;;;16.83;82.61
76022;BME280;64718;52.124;6.226;2023-07-08T04:36:54;101686.38;;;16.88;82.61
76022;BME280;64718;52.124;6.226;2023-07-08T04:39:20;101684.88;;;16.84;81.46
76022;BME280;64718;52.124;6.226;2023-07-08T04:41:47;101688.59;;;16.80;81.86
76022;BME280;64718;52.124;6.226;2023-07-08T04:44:13;101690.53;;;16.77;81.71
76022;BME280;64718;52.124;6.226;2023-07-08T04:46:45;101694.78;;;16.79;82.03
76022;BME280;64718;52.124;6.226;2023-07-08T04:49:13;101700.03;;;16.79;82.29
76022;BME280;64718;52.124;6.226;2023-07-08T04:51:40;101700.22;;;16.92;81.58
76022;BME280;64718;52.124;6.226;2023-07-08T04:54:07;101695.53;;;17.74;78.80
76022;BME280;64718;52.124;6.226;2023-07-08T04:56:37;101692.06;;;18.75;73.38
76022;BME280;64718;52.124;6.226;2023-07-08T04:59:04;101692.28;;;19.79;68.71
76022;BME280;64718;52.124;6.226;2023-07-08T05:01:31;101677.38;;;20.55;65.50
76022;BME280;64718;52.124;6.226;2023-07-08T05:03:59;101683.81;;;21.00;63.17
76022;BME280;64718;52.124;6.226;2023-07-08T05:06:26;101684.25;;;21.54;61.34
76022;BME280;64718;52.124;6.226;2023-07-08T05:08:53;101694.13;;;21.63;61.51
76022;BME280;64718;52.124;6.226;2023-07-08T05:11:19;101690.44;;;22.46;58.46
76022;BME280;64718;52.124;6.226;2023-07-08T05:13:46;101688.72;;;22.89;56.82
76022;BME280;64718;52.124;6.226;2023-07-08T05:16:12;101690.84;;;23.18;55.23
76022;BME280;64718;52.124;6.226;2023-07-08T05:18:39;101686.75;;;23.14;54.26
76022;BME280;64718;52.124;6.226;2023-07-08T05:21:08;101692.56;;;23.40;54.02
76022;BME280;64718;52.124;6.226;2023-07-08T05:23:35;101682.41;;;23.45;52.71
76022;BME280;64718;52.124;6.226;2023-07-08T05:26:02;101681.41;;;23.25;53.05
76022;BME280;64718;52.124;6.226;2023-07-08T05:28:30;101676.63;;;23.40;53.56
76022;BME280;64718;52.124;6.226;2023-07-08T05:30:57;101665.66;;;23.86;51.97
76022;BME280;64718;52.124;6.226;2023-07-08T05:33:24;101670.97;;;23.65;52.26
76022;BME280;64718;52.124;6.226;2023-07-08T05:35:51;101669.63;;;23.71;52.98
76022;BME280;64718;52.124;6.226;2023-07-08T05:38:20;101670.28;;;23.84;51.24
76022;BME280;64718;52.124;6.226;2023-07-08T05:40:48;101667.59;;;24.05;51.51
76022;BME280;64718;52.124;6.226;2023-07-08T05:43:15;101671.34;;;24.02;51.04
76022;BME280;64718;52.124;6.226;2023-07-08T05:45:42;101667.19;;;24.80;49.32
76022;BME280;64718;52.124;6.226;2023-07-08T05:48:09;101665.34;;;24.61;50.22
76022;BME280;64718;52.124;6.226;2023-07-08T05:50:35;101666.75;;;24.65;50.08
76022;BME280;64718;52.124;6.226;2023-07-08T05:53:02;101661.06;;;24.89;49.13
76022;BME280;64718;52.124;6.226;2023-07-08T05:55:30;101660.69;;;25.22;48.41
76022;BME280;64718;52.124;6.226;2023-07-08T05:57:57;101648.22;;;25.23;48.01
76022;BME280;64718;52.124;6.226;2023-07-08T06:00:24;101655.66;;;25.19;48.07
76022;BME280;64718;52.124;6.226;2023-07-08T06:02:50;101654.53;;;25.12;48.16
76022;BME280;64718;52.124;6.226;2023-07-08T06:05:17;101660.56;;;25.24;47.89
76022;BME280;64718;52.124;6.226;2023-07-08T06:07:43;101665.47;;;25.48;47.14
76022;BME280;64718;52.124;6.226;2023-07-08T06:10:10;101658.25;;;25.87;46.58
76022;BME280;64718;52.124;6.226;2023-07-08T06:12:38;101657.72;;;25.83;46.25
76022;BME280;64718;52.124;6.226;2023-07-08T06:15:05;101657.84;;;25.82;46.37
76022;BME280;64718;52.124;6.226;2023-07-08T06:17:32;101665.19;;;25.22;46.91
76022;BME280;64718;52.124;6.226;2023-07-08T06:19:59;101664.16;;;25.81;45.85
76022;BME280;64718;52.124;6.226;2023-07-08T06:22:27;101653.19;;;26.31;45.23
76022;BME280;64718;52.124;6.226;2023-07-08T06:24:53;101660.28;;;26.77;44.30
76022;BME280;64718;52.124;6.226;2023-07-08T06:27:20;101662.81;;;26.78;43.88
76022;BME280;64718;52.124;6.226;2023-07-08T06:29:48;101666.13;;;27.08;43.01
76022;BME280;64718;52.124;6.226;2023-07-08T06:32:14;101657.81;;;27.11;43.13
76022;BME280;64718;52.124;6.226;2023-07-08T06:34:41;101666.09;;;27.18;42.58
76022;BME280;64718;52.124;6.226;2023-07-08T06:37:08;101662.13;;;26.94;42.93
76022;BME280;64718;52.124;6.226;2023-07-08T06:39:34;101660.75;;;27.18;42.50
76022;BME280;64718;52.124;6.226;2023-07-08T06:42:01;101656.50;;;27.15;42.18
76022;BME280;64718;52.124;6.226;2023-07-08T06:44:28;101648.59;;;27.05;42.63
76022;BME280;64718;52.124;6.226;2023-07-08T06:46:56;101648.06;;;27.81;42.47
76022;BME280;64718;52.124;6.226;2023-07-08T06:49:22;101655.88;;;28.00;40.48
76022;BME280;64718;52.124;6.226;2023-07-08T06:51:49;101663.81;;;27.84;40.80
76022;BME280;64718;52.124;6.226;2023-07-08T06:54:15;101652.09;;;28.45;39.92
76022;BME280;64718;52.124;6.226;2023-07-08T06:56:42;101666.66;;;28.93;39.49
76022;BME280;64718;52.124;6.226;2023-07-08T06:59:09;101665.91;;;28.75;39.12
76022;BME280;64718;52.124;6.226;2023-07-08T07:01:36;101663.03;;;28.60;40.37
76022;BME280;64718;52.124;6.226;2023-07-08T07:04:04;101663.72;;;28.70;39.04
76022;BME280;64718;52.124;6.226;2023-07-08T07:06:31;101668.38;;;28.60;40.81
76022;BME280;64718;52.124;6.226;2023-07-08T07:08:57;101672.38;;;29.39;38.88
76022;BME280;64718;52.124;6.226;2023-07-08T07:11:24;101662.50;;;29.39;38.61
76022;BME280;64718;52.124;6.226;2023-07-08T07:13:49;101669.41;;;29.66;38.58
76022;BME280;64718;52.124;6.226;2023-07-08T07:16:16;101661.50;;;29.32;39.01
76022;BME280;64718;52.124;6.226;2023-07-08T07:18:43;101670.06;;;29.76;38.78
76022;BME280;64718;52.124;6.226;2023-07-08T07:21:11;101665.19;;;29.15;39.13
76022;BME280;64718;52.124;6.226;2023-07-08T07:23:38;101654.78;;;29.28;38.47
76022;BME280;64718;52.124;6.226;2023-07-08T07:26:04;101660.13;;;27.85;40.84
76022;BME280;64718;52.124;6.226;2023-07-08T07:28:32;101664.03;;;26.57;44.66
76022;BME280;64718;52.124;6.226;2023-07-08T07:30:59;101656.75;;;27.04;44.10
76022;BME280;64718;52.124;6.226;2023-07-08T07:33:26;101647.41;;;27.79;42.52
76022;BME280;64718;52.124;6.226;2023-07-08T07:35:53;101643.88;;;28.39;41.22
76022;BME280;64718;52.124;6.226;2023-07-08T07:38:21;101646.91;;;28.94;40.02
76022;BME280;64718;52.124;6.226;2023-07-08T07:40:52;101651.94;;;29.21;39.24
76022;BME280;64718;52.124;6.226;2023-07-08T07:43:18;101651.97;;;28.55;41.88
76022;BME280;64718;52.124;6.226;2023-07-08T07:45:45;101642.22;;;29.28;40.45
76022;BME280;64718;52.124;6.226;2023-07-08T07:48:15;101644.44;;;29.57;39.94
76022;BME280;64718;52.124;6.226;2023-07-08T07:50:44;101635.44;;;30.06;38.58
76022;BME280;64718;52.124;6.226;2023-07-08T07:53:11;101640.25;;;30.27;37.82
76022;BME280;64718;52.124;6.226;2023-07-08T07:55:39;101641.75;;;30.29;37.59
76022;BME280;64718;52.124;6.226;2023-07-08T07:58:06;101643.44;;;30.30;38.00
76022;BME280;64718;52.124;6.226;2023-07-08T08:00:33;101637.41;;;30.28;37.91
76022;BME280;64718;52.124;6.226;2023-07-08T08:03:00;101645.13;;;30.62;37.39
76022;BME280;64718;52.124;6.226;2023-07-08T08:05:27;101643.63;;;30.68;38.36
76022;BME280;64718;52.124;6.226;2023-07-08T08:07:53;101638.94;;;31.15;36.31
76022;BME280;64718;52.124;6.226;2023-07-08T08:10:20;101637.97;;;30.86;37.03
76022;BME280;64718;52.124;6.226;2023-07-08T08:12:48;101645.75;;;31.26;36.91
76022;BME280;64718;52.124;6.226;2023-07-08T08:15:16;101641.88;;;30.75;38.02
76022;BME280;64718;52.124;6.226;2023-07-08T08:17:42;101647.44;;;30.73;36.58
76022;BME280;64718;52.124;6.226;2023-07-08T08:20:12;101650.69;;;31.37;37.10
76022;BME280;64718;52.124;6.226;2023-07-08T08:22:39;101645.31;;;31.37;36.58
76022;BME280;64718;52.124;6.226;2023-07-08T08:25:06;101635.31;;;31.84;35.83
76022;BME280;64718;52.124;6.226;2023-07-08T08:27:33;101623.59;;;31.76;35.18
76022;BME280;64718;52.124;6.226;2023-07-08T08:30:01;101631.38;;;31.71;35.61
76022;BME280;64718;52.124;6.226;2023-07-08T08:32:27;101632.28;;;31.64;36.25
76022;BME280;64718;52.124;6.226;2023-07-08T08:34:54;101626.50;;;31.37;36.43
76022;BME280;64718;52.124;6.226;2023-07-08T08:37:20;101619.78;;;31.71;37.00
76022;BME280;64718;52.124;6.226;2023-07-08T08:39:47;101611.91;;;32.14;35.19
76022;BME280;64718;52.124;6.226;2023-07-08T08:42:20;101619.69;;;31.79;34.59
76022;BME280;64718;52.124;6.226;2023-07-08T08:44:49;101623.81;;;31.90;36.67
76022;BME280;64718;52.124;6.226;2023-07-08T08:47:25;101626.75;;;32.24;34.15
76022;BME280;64718;52.124;6.226;2023-07-08T08:49:56;101634.66;;;32.11;35.20
76022;BME280;64718;52.124;6.226;2023-07-08T08:52:24;101633.47;;;31.84;34.90
76022;BME280;64718;52.124;6.226;2023-07-08T08:54:51;101631.84;;;32.34;35.78
76022;BME280;64718;52.124;6.226;2023-07-08T08:57:29;101630.19;;;32.03;34.75
76022;BME280;64718;52.124;6.226;2023-07-08T08:59:59;101629.75;;;31.85;34.99
76022;BME280;64718;52.124;6.226;2023-07-08T09:02:33;101630.75;;;32.43;34.62
76022;BME280;64718;52.124;6.226;2023-07-08T09:05:03;101629.44;;;32.24;34.62
76022;BME280;64718;52.124;6.226;2023-07-08T09:07:39;101633.84;;;32.61;34.70
76022;BME280;64718;52.124;6.226;2023-07-08T09:10:10;101634.00;;;32.38;36.03
76022;BME280;64718;52.124;6.226;2023-07-08T09:12:42;101637.25;;;32.34;34.48
76022;BME280;64718;52.124;6.226;2023-07-08T09:15:14;101641.47;;;32.58;35.87
76022;BME280;64718;52.124;6.226;2023-07-08T09:17:42;101644.50;;;32.69;34.75
76022;BME280;64718;52.124;6.226;2023-07-08T09:20:17;101640.22;;;32.75;35.57
76022;BME280;64718;52.124;6.226;2023-07-08T09:22:51;101649.88;;;32.19;35.71
76022;BME280;64718;52.124;6.226;2023-07-08T09:25:25;101638.09;;;32.05;35.58
76022;BME280;64718;52.124;6.226;2023-07-08T09:27:53;101639.59;;;31.93;34.78
76022;BME280;64718;52.124;6.226;2023-07-08T09:30:21;101634.84;;;32.09;34.84
76022;BME280;64718;52.124;6.226;2023-07-08T09:32:49;101632.97;;;32.39;35.01
76022;BME280;64718;52.124;6.226;2023-07-08T09:35:19;101631.09;;;32.55;34.68
76022;BME280;64718;52.124;6.226;2023-07-08T09:37:47;101629.06;;;32.42;34.57
76022;BME280;64718;52.124;6.226;2023-07-08T09:40:16;101632.41;;;32.44;34.15
76022;BME280;64718;52.124;6.226;2023-07-08T09:42:48;101636.81;;;32.66;34.75
76022;BME280;64718;52.124;6.226;2023-07-08T09:45:17;101631.59;;;32.65;34.25
76022;BME280;64718;52.124;6.226;2023-07-08T09:47:44;101636.25;;;32.92;34.42
76022;BME280;64718;52.124;6.226;2023-07-08T09:50:22;101634.19;;;32.07;33.25
76022;BME280;64718;52.124;6.226;2023-07-08T09:52:52;101636.41;;;32.33;34.67
76022;BME280;64718;52.124;6.226;2023-07-08T09:55:20;101632.25;;;32.67;31.96
76022;BME280;64718;52.124;6.226;2023-07-08T09:57:48;101630.44;;;32.23;32.81
76022;BME280;64718;52.124;6.226;2023-07-08T10:00:27;101633.78;;;32.76;33.47
76022;BME280;64718;52.124;6.226;2023-07-08T10:02:56;101625.22;;;32.87;32.94
76022;BME280;64718;52.124;6.226;2023-07-08T10:05:28;101628.47;;;32.61;33.79
76022;BME280;64718;52.124;6.226;2023-07-08T10:07:57;101626.56;;;32.26;32.95
76022;BME280;64718;52.124;6.226;2023-07-08T10:10:28;101627.78;;;32.38;34.28
76022;BME280;64718;52.124;6.226;2023-07-08T10:12:58;101623.72;;;32.63;34.21
76022;BME280;64718;52.124;6.226;2023-07-08T10:15:31;101632.50;;;32.51;34.00
76022;BME280;64718;52.124;6.226;2023-07-08T10:17:59;101632.78;;;32.41;34.64
76022;BME280;64718;52.124;6.226;2023-07-08T10:20:37;101631.59;;;32.29;34.05
76022;BME280;64718;52.124;6.226;2023-07-08T10:23:17;101632.41;;;32.15;34.71
76022;BME280;64718;52.124;6.226;2023-07-08T10:25:55;101627.47;;;32.18;35.23
76022;BME280;64718;52.124;6.226;2023-07-08T10:28:31;101628.50;;;31.73;35.91
76022;BME280;64718;52.124;6.226;2023-07-08T10:31:11;101624.53;;;31.84;35.66
76022;BME280;64718;52.124;6.226;2023-07-08T10:33:52;101621.13;;;31.67;36.81
76022;BME280;64718;52.124;6.226;2023-07-08T10:36:26;101622.25;;;31.58;38.29
76022;BME280;64718;52.124;6.226;2023-07-08T10:39:13;101625.78;;;31.58;37.19
76022;BME280;64718;52.124;6.226;2023-07-08T10:41:52;101618.22;;;31.76;36.97
76022;BME280;64718;52.124;6.226;2023-07-08T10:44:25;101620.13;;;31.68;37.11
76022;BME280;64718;52.124;6.226;2023-07-08T10:46:59;101622.56;;;31.77;36.75
76022;BME280;64718;52.124;6.226;2023-07-08T10:49:56;101624.72;;;32.12;38.66
76022;BME280;64718;52.124;6.226;2023-07-08T10:52:40;101621.38;;;32.24;35.44
76022;BME280;64718;52.124;6.226;2023-07-08T10:55:20;101628.16;;;32.05;36.49
76022;BME280;64718;52.124;6.226;2023-07-08T10:58:01;101631.56;;;32.14;37.77
76022;BME280;64718;52.124;6.226;2023-07-08T11:00:37;101624.06;;;32.24;37.09
76022;BME280;64718;52.124;6.226;2023-07-08T11:03:32;101620.00;;;31.99;37.46
76022;BME280;64718;52.124;6.226;2023-07-08T11:06:08;101630.75;;;32.14;36.22
76022;BME280;64718;52.124;6.226;2023-07-08T11:08:41;101627.88;;;32.30;35.87
76022;BME280;64718;52.124;6.226;2023-07-08T11:11:17;101617.59;;;32.55;34.78
76022;BME280;64718;52.124;6.226;2023-07-08T11:13:53;101621.06;;;32.49;34.38
76022;BME280;64718;52.124;6.226;2023-07-08T11:16:26;101619.50;;;32.39;33.38
76022;BME280;64718;52.124;6.226;2023-07-08T11:19:08;101616.13;;;32.52;33.33
76022;BME280;64718;52.124;6.226;2023-07-08T11:21:39;101612.09;;;32.63;33.69
76022;BME280;64718;52.124;6.226;2023-07-08T11:24:14;101615.69;;;32.70;34.85
76022;BME280;64718;52.124;6.226;2023-07-08T11:26:47;101616.94;;;32.89;33.31
76022;BME280;64718;52.124;6.226;2023-07-08T11:29:17;101608.78;;;32.82;32.89
76022;BME280;64718;52.124;6.226;2023-07-08T11:31:46;101603.03;;;33.07;34.19
76022;BME280;64718;52.124;6.226;2023-07-08T11:34:13;101599.44;;;33.27;32.21
76022;BME280;64718;52.124;6.226;2023-07-08T11:36:42;101581.72;;;33.40;33.13
76022;BME280;64718;52.124;6.226;2023-07-08T11:39:31;101579.47;;;33.43;32.21
76022;BME280;64718;52.124;6.226;2023-07-08T11:42:14;101587.63;;;33.28;31.98
76022;BME280;64718;52.124;6.226;2023-07-08T11:44:43;101586.47;;;33.38;32.27
76022;BME280;64718;52.124;6.226;2023-07-08T11:47:16;101586.47;;;33.66;34.43
76022;BME280;64718;52.124;6.226;2023-07-08T11:49:47;101592.63;;;33.87;33.93
76022;BME280;64718;52.124;6.226;2023-07-08T11:52:17;101593.09;;;33.63;32.22
76022;BME280;64718;52.124;6.226;2023-07-08T11:54:47;101603.38;;;33.81;31.85
76022;BME280;64718;52.124;6.226;2023-07-08T11:57:24;101596.41;;;33.58;32.29
76022;BME280;64718;52.124;6.226;2023-07-08T12:00:12;101594.94;;;33.90;33.34
76022;BME280;64718;52.124;6.226;2023-07-08T12:02:52;101586.75;;;33.77;31.09
76022;BME280;64718;52.124;6.226;2023-07-08T12:05:29;101593.91;;;33.91;31.39
76022;BME280;64718;52.124;6.226;2023-07-08T12:07:57;101597.66;;;33.97;30.38
76022;BME280;64718;52.124;6.226;2023-07-08T12:10:30;101592.22;;;33.84;29.88
76022;BME280;64718;52.124;6.226;2023-07-08T12:12:58;101592.88;;;34.34;31.82
76022;BME280;64718;52.124;6.226;2023-07-08T12:15:26;101586.06;;;34.03;31.80
76022;BME280;64718;52.124;6.226;2023-07-08T12:17:55;101585.81;;;33.91;33.14
76022;BME280;64718;52.124;6.226;2023-07-08T12:20:24;101591.59;;;34.30;31.58
76022;BME280;64718;52.124;6.226;2023-07-08T12:22:52;101587.09;;;34.50;31.36
76022;BME280;64718;52.124;6.226;2023-07-08T12:25:22;101591.44;;;34.44;30.77
76022;BME280;64718;52.124;6.226;2023-07-08T12:27:50;101583.56;;;34.63;30.61
76022;BME280;64718;52.124;6.226;2023-07-08T12:30:17;101588.03;;;34.97;32.90
76022;BME280;64718;52.124;6.226;2023-07-08T12:32:44;101591.97;;;35.01;30.67
76022;BME280;64718;52.124;6.226;2023-07-08T12:35:21;101582.56;;;34.77;30.46
76022;BME280;64718;52.124;6.226;2023-07-08T12:37:48;101577.41;;;34.88;29.97
76022;BME280;64718;52.124;6.226;2023-07-08T12:40:15;101578.03;;;35.04;29.36
76022;BME280;64718;52.124;6.226;2023-07-08T12:42:42;101563.88;;;35.02;28.10
76022;BME280;64718;52.124;6.226;2023-07-08T12:45:14;101576.16;;;35.17;29.70
76022;BME280;64718;52.124;6.226;2023-07-08T12:47:42;101579.69;;;35.05;30.14
76022;BME280;64718;52.124;6.226;2023-07-08T12:50:09;101574.91;;;35.13;28.67
76022;BME280;64718;52.124;6.226;2023-07-08T12:52:36;101574.91;;;35.27;29.17
76022;BME280;64718;52.124;6.226;2023-07-08T12:55:03;101584.09;;;35.39;28.93
76022;BME280;64718;52.124;6.226;2023-07-08T12:57:30;101572.59;;;35.24;29.46
76022;BME280;64718;52.124;6.226;2023-07-08T12:59:58;101568.03;;;35.44;30.16